Terminal Aerodrome Forecast
Issued by NWS

Home | Current Version | Previous Version | Graphics & Text | Print | Product List | Glossary On
Versions: 1 2 3 4 5 6 7 8 9 10 11 12 13 14 15
178
FTUS43 KBIS 241720
TAFJMS
TAF
KJMS 241720Z 2418/2518 33018G28KT P6SM SCT025 OVC035
     FM242000 33020G28KT P6SM VCSH BKN025 OVC030
     FM242300 33019G27KT P6SM SCT035 BKN040
     FM250200 33013KT P6SM SCT040 BKN070
     FM250400 32007KT P6SM FEW035 SCT090=

USA.gov is the U.S. government's official web portal to all federal, state and local government web resources and services.